createdAt,value
2022-09-23T00:02:00.276Z,4.55
2022-09-23T00:06:12.512Z,2.08
2022-09-23T00:10:19.209Z,6.07
2022-09-23T00:14:25.997Z,3.10
2022-09-23T00:18:33.167Z,2.72
2022-09-23T00:22:40.397Z,2.30
2022-09-23T00:26:47.062Z,2.70
2022-09-23T00:30:54.013Z,3.47
2022-09-23T00:35:00.798Z,5.43
2022-09-23T00:39:07.562Z,8.02
2022-09-23T00:43:15.152Z,3.40
2022-09-23T00:47:31.014Z,4.95
2022-09-23T00:51:43.945Z,3.15
2022-09-23T00:55:54.825Z,5.03
2022-09-23T01:00:02.290Z,2.63
2022-09-23T01:04:09.864Z,1.10
2022-09-23T01:08:16.749Z,1.17
2022-09-23T01:12:51.491Z,8.38
2022-09-23T01:17:13.708Z,2.28
2022-09-23T01:21:44.912Z,1.25
2022-09-23T01:26:16.542Z,1.48
2022-09-23T01:30:39.104Z,4.90
2022-09-23T01:39:10.733Z,2.28
2022-09-23T01:43:30.991Z,1.50
2022-09-23T01:48:03.351Z,2.15
2022-09-23T01:52:34.667Z,2.90
2022-09-23T01:57:08.554Z,3.83
2022-09-23T02:01:21.260Z,4.85
2022-09-23T02:05:30.321Z,3.97
2022-09-23T02:09:42.236Z,5.25
2022-09-23T02:14:00.136Z,3.05
2022-09-23T02:18:22.591Z,3.05
2022-09-23T02:22:41.224Z,3.63
2022-09-23T02:26:56.310Z,3.15
2022-09-23T02:31:16.989Z,2.13
2022-09-23T02:35:51.443Z,2.20
2022-09-23T02:40:09.886Z,1.50
2022-09-23T02:44:19.425Z,2.17
2022-09-23T02:48:44.217Z,3.25
2022-09-23T02:52:50.905Z,1.90
2022-09-23T02:57:01.166Z,7.18
2022-09-23T03:01:24.264Z,4.97
2022-09-23T03:05:37.610Z,3.60
2022-09-23T03:10:20.893Z,4.75
2022-09-23T03:14:44.972Z,5.97
2022-09-23T03:19:12.964Z,8.00
2022-09-23T03:23:28.959Z,7.25
2022-09-23T03:27:37.695Z,4.80
2022-09-23T03:31:44.980Z,7.28
2022-09-23T03:36:13.433Z,7.28
2022-09-23T03:40:30.607Z,7.95
2022-09-23T03:44:39.662Z,6.38
2022-09-23T03:48:46.473Z,6.35
2022-09-23T03:52:53.364Z,4.85
2022-09-23T03:57:03.032Z,4.70
2022-09-23T04:01:09.923Z,5.32
2022-09-23T04:05:18.038Z,5.38
2022-09-23T04:09:24.925Z,5.80
2022-09-23T04:13:32.012Z,7.50
2022-09-23T04:17:38.679Z,8.13
2022-09-23T04:21:46.080Z,8.77
2022-09-23T04:25:53.374Z,7.45
2022-09-23T04:30:00.031Z,6.32
2022-09-23T04:34:06.953Z,8.32
2022-09-23T04:38:13.670Z,8.95
2022-09-23T04:42:20.363Z,6.88
2022-09-23T04:46:27.094Z,5.35
2022-09-23T04:50:34.132Z,6.80
2022-09-23T04:54:41.602Z,3.90
2022-09-23T04:58:49.129Z,3.92
2022-09-23T05:02:55.771Z,6.57
2022-09-23T05:07:03.570Z,7.68
2022-09-23T05:11:10.340Z,9.60
2022-09-23T05:15:17.154Z,8.75
2022-09-23T05:19:23.833Z,11.20
2022-09-23T05:23:30.789Z,9.00
2022-09-23T05:27:37.968Z,8.68
2022-09-23T05:31:44.734Z,9.50
2022-09-23T05:35:51.437Z,9.70
2022-09-23T05:39:58.093Z,9.07
2022-09-23T05:44:04.990Z,7.38
2022-09-23T05:48:11.643Z,6.38
2022-09-23T05:52:18.322Z,10.30
2022-09-23T05:56:28.348Z,4.88
2022-09-23T06:00:35.042Z,5.72
2022-09-23T06:04:42.139Z,7.40
2022-09-23T06:08:48.801Z,6.93
2022-09-23T06:12:55.561Z,5.78
2022-09-23T06:17:02.337Z,6.57
2022-09-23T06:21:12.235Z,7.75
2022-09-23T06:25:19.549Z,7.72
2022-09-23T06:29:26.514Z,8.32
2022-09-23T06:33:37.022Z,6.68
2022-09-23T06:37:44.156Z,10.85
2022-09-23T06:41:50.801Z,6.45
2022-09-23T06:46:00.900Z,10.13
2022-09-23T06:50:08.860Z,9.27
2022-09-23T06:54:15.521Z,6.57
2022-09-23T06:58:22.161Z,11.93
2022-09-23T07:02:28.957Z,6.95
2022-09-23T07:06:36.270Z,8.30
2022-09-23T07:10:42.927Z,4.50
2022-09-23T07:14:49.673Z,7.75
2022-09-23T07:18:56.463Z,9.90
2022-09-23T07:23:03.260Z,6.82
2022-09-23T07:27:09.985Z,6.95
2022-09-23T07:31:28.322Z,14.95
2022-09-23T07:35:41.135Z,5.95
2022-09-23T07:39:47.978Z,4.45
2022-09-23T07:43:58.839Z,5.85
2022-09-23T07:48:05.789Z,7.93
2022-09-23T07:52:12.433Z,7.00
2022-09-23T07:56:20.249Z,8.77
2022-09-23T08:00:27.003Z,6.82
2022-09-23T08:04:34.737Z,7.03
2022-09-23T08:08:44.675Z,5.53
2022-09-23T08:12:51.314Z,5.72
2022-09-23T08:16:57.982Z,6.35
2022-09-23T08:21:04.824Z,7.32
2022-09-23T08:25:11.504Z,6.80
2022-09-23T08:29:19.252Z,5.07
2022-09-23T08:33:26.706Z,4.65
2022-09-23T08:37:33.405Z,5.63
2022-09-23T08:41:58.418Z,9.45
2022-09-23T08:46:11.013Z,7.07
2022-09-23T08:50:31.795Z,6.25
2022-09-23T08:54:38.528Z,7.85
2022-09-23T08:58:51.861Z,6.28
2022-09-23T09:02:58.574Z,5.22
2022-09-23T09:07:34.594Z,5.57
2022-09-23T09:11:48.371Z,6.18
2022-09-23T09:16:42.187Z,6.63
2022-09-23T09:21:05.215Z,8.45
2022-09-23T09:25:34.094Z,9.32
2022-09-23T09:29:53.920Z,8.27
2022-09-23T09:34:30.064Z,11.93
2022-09-23T09:38:37.238Z,5.25
2022-09-23T09:42:48.345Z,7.05
2022-09-23T09:47:16.916Z,3.97
2022-09-23T09:51:25.529Z,3.35
2022-09-23T09:55:32.189Z,7.22
2022-09-23T09:59:44.021Z,5.63
2022-09-23T10:03:56.908Z,6.10
2022-09-23T10:08:20.999Z,4.00
2022-09-23T10:12:27.750Z,5.05
2022-09-23T10:16:34.834Z,8.15
2022-09-23T10:20:41.592Z,4.55
2022-09-23T10:24:50.520Z,4.47
2022-09-23T10:28:58.377Z,5.32
2022-09-23T10:33:28.063Z,6.10
2022-09-23T10:37:41.543Z,4.97
2022-09-23T10:42:21.676Z,5.78
2022-09-23T10:46:45.817Z,5.60
2022-09-23T10:50:54.386Z,4.82
2022-09-23T10:55:29.822Z,5.13
2022-09-23T11:00:11.539Z,3.08
2022-09-23T11:04:55.521Z,7.22
2022-09-23T11:09:26.405Z,5.10
2022-09-23T11:13:57.024Z,5.85
2022-09-23T11:18:16.668Z,6.78
2022-09-23T11:22:36.989Z,6.15
2022-09-23T11:27:07.522Z,4.93
2022-09-23T11:31:27.363Z,8.27
2022-09-23T11:35:41.617Z,6.15
2022-09-23T11:40:15.144Z,3.10
2022-09-23T11:44:39.577Z,6.40
2022-09-23T11:49:12.680Z,2.35
2022-09-23T11:53:32.794Z,10.07
2022-09-23T11:57:51.608Z,4.67
2022-09-23T12:02:18.892Z,3.45
2022-09-23T12:06:34.046Z,2.70
2022-09-23T12:11:01.490Z,4.82
2022-09-23T12:15:42.485Z,6.97
2022-09-23T12:19:51.645Z,7.32
2022-09-23T12:24:03.214Z,7.85
2022-09-23T12:28:36.080Z,9.23
2022-09-23T12:32:43.446Z,3.72
2022-09-23T12:36:50.317Z,5.93
2022-09-23T12:40:57.096Z,4.00
2022-09-23T12:45:27.899Z,6.93
2022-09-23T12:49:37.668Z,6.22
2022-09-23T12:54:04.012Z,2.58
2022-09-23T12:58:38.124Z,4.82
2022-09-23T13:02:47.817Z,8.07
2022-09-23T13:07:07.741Z,5.35
2022-09-23T13:11:22.784Z,5.55
2022-09-23T13:15:36.856Z,3.15
2022-09-23T13:19:45.158Z,2.20
2022-09-23T13:24:29.949Z,4.18
2022-09-23T13:28:55.793Z,4.40
2022-09-23T13:33:11.808Z,3.75
2022-09-23T13:37:22.709Z,7.40
2022-09-23T13:41:29.797Z,3.53
2022-09-23T13:45:40.040Z,3.47
2022-09-23T13:49:48.303Z,8.20
2022-09-23T13:53:57.806Z,7.00
2022-09-23T13:58:24.338Z,6.68
2022-09-23T14:02:30.991Z,4.63
2022-09-23T14:06:40.891Z,10.82
2022-09-23T14:10:48.551Z,6.97
2022-09-23T14:14:55.309Z,8.98
2022-09-23T14:19:02.314Z,10.25
2022-09-23T14:23:16.353Z,6.30
2022-09-23T14:27:30.569Z,4.28
2022-09-23T14:31:37.359Z,7.20
2022-09-23T14:35:48.054Z,9.68
2022-09-23T14:39:57.802Z,6.60
2022-09-23T14:44:06.049Z,7.72
2022-09-23T14:48:29.944Z,10.65
2022-09-23T14:52:36.626Z,7.50
2022-09-23T14:56:44.034Z,9.50
2022-09-23T15:00:59.872Z,8.30
2022-09-23T15:05:21.697Z,10.18
2022-09-23T15:09:35.609Z,6.13
2022-09-23T15:13:47.013Z,11.80
2022-09-23T15:17:54.291Z,10.57
2022-09-23T15:22:01.210Z,9.63
2022-09-23T15:26:16.669Z,8.27
2022-09-23T15:30:23.658Z,7.40
2022-09-23T15:34:31.891Z,8.45
2022-09-23T15:38:42.958Z,5.47
2022-09-23T15:42:52.339Z,6.33
2022-09-23T15:47:01.875Z,4.90
2022-09-23T15:51:09.838Z,7.63
2022-09-23T15:55:23.726Z,4.97
2022-09-23T15:59:33.188Z,7.57
2022-09-23T16:03:40.070Z,6.30
2022-09-23T16:07:48.396Z,7.55
2022-09-23T16:11:55.181Z,7.72
2022-09-23T16:16:02.108Z,5.85
2022-09-23T16:20:09.319Z,5.68
2022-09-23T16:24:18.376Z,6.53
2022-09-23T16:28:25.086Z,5.95
2022-09-23T16:32:31.779Z,8.75
2022-09-23T16:36:41.394Z,5.75
2022-09-23T16:40:48.178Z,9.00
2022-09-23T16:44:54.861Z,6.55
2022-09-23T16:49:01.945Z,4.47
2022-09-23T16:53:08.650Z,5.65
2022-09-23T16:57:15.337Z,5.13
2022-09-23T17:01:46.401Z,6.03
2022-09-23T17:05:54.387Z,7.45
2022-09-23T17:10:01.055Z,5.97
2022-09-23T17:14:07.829Z,9.93
2022-09-23T17:18:19.336Z,8.88
2022-09-23T17:22:29.273Z,7.18
2022-09-23T17:26:35.945Z,4.13
2022-09-23T17:30:42.643Z,3.92
2022-09-23T17:34:49.347Z,5.78
2022-09-23T17:38:56.045Z,6.72
2022-09-23T17:43:02.706Z,4.57
2022-09-23T17:47:09.728Z,6.70
2022-09-23T17:51:19.794Z,8.98
2022-09-23T17:55:26.446Z,4.78
2022-09-23T17:59:33.455Z,5.95
2022-09-23T18:03:43.419Z,7.22
2022-09-23T18:07:50.083Z,5.43
2022-09-23T18:11:57.759Z,6.75
2022-09-23T18:16:04.465Z,7.80
2022-09-23T18:20:11.349Z,6.63
2022-09-23T18:24:34.860Z,6.53
2022-09-23T18:28:42.720Z,7.32
2022-09-23T18:32:49.938Z,5.60
2022-09-23T18:36:56.943Z,7.88
2022-09-23T18:41:03.960Z,9.88
2022-09-23T18:45:11.859Z,7.38
2022-09-23T18:49:37.262Z,8.10
2022-09-23T18:53:47.901Z,7.93
2022-09-23T18:57:54.587Z,7.93
2022-09-23T19:02:01.452Z,8.63
2022-09-23T19:06:11.813Z,9.60
2022-09-23T19:10:19.144Z,6.68
2022-09-23T19:14:26.476Z,7.78
2022-09-23T19:18:33.966Z,9.88
2022-09-23T19:22:47.192Z,11.20
2022-09-23T19:26:54.559Z,12.32
2022-09-23T19:31:12.475Z,12.63
2022-09-23T19:35:19.165Z,12.00
2022-09-23T19:39:28.276Z,12.93
2022-09-23T19:43:38.170Z,10.63
2022-09-23T19:47:44.827Z,13.98
2022-09-23T19:51:51.491Z,12.93
2022-09-23T19:55:58.500Z,16.52
2022-09-23T20:00:05.730Z,11.40
2022-09-23T20:04:12.433Z,17.65
2022-09-23T20:08:19.270Z,16.02
2022-09-23T20:12:25.947Z,15.88
2022-09-23T20:16:35.185Z,13.70
2022-09-23T20:20:42.423Z,14.52
2022-09-23T20:24:49.067Z,21.70
2022-09-23T20:28:55.736Z,14.95
2022-09-23T20:33:02.394Z,15.75
2022-09-23T20:37:10.753Z,14.93
2022-09-23T20:41:18.091Z,16.00
2022-09-23T20:45:24.737Z,24.42
2022-09-23T20:49:34.030Z,16.67
2022-09-23T20:53:40.871Z,23.52
2022-09-23T20:57:48.493Z,21.05
2022-09-23T21:01:58.067Z,25.10
2022-09-23T21:06:05.731Z,27.92
2022-09-23T21:10:13.333Z,24.23
2022-09-23T21:14:22.089Z,31.42
2022-09-23T21:18:28.858Z,27.90
2022-09-23T21:22:36.073Z,28.30
2022-09-23T21:26:44.414Z,23.38
2022-09-23T21:30:52.083Z,28.98
2022-09-23T21:34:58.859Z,23.88
2022-09-23T21:39:06.788Z,22.23
2022-09-23T21:43:13.478Z,23.10
2022-09-23T21:47:20.117Z,21.48
2022-09-23T21:51:29.546Z,23.65
2022-09-23T21:55:36.205Z,16.77
2022-09-23T21:59:42.843Z,22.40
2022-09-23T22:04:05.015Z,20.25
2022-09-23T22:12:18.466Z,20.52
2022-09-23T22:16:25.230Z,19.98
2022-09-23T22:20:33.558Z,24.17
2022-09-23T22:24:41.471Z,20.85
2022-09-23T22:29:07.008Z,21.80
2022-09-23T22:33:16.746Z,21.25
2022-09-23T22:37:35.418Z,19.73
2022-09-23T22:41:42.117Z,20.77
2022-09-23T22:45:50.837Z,19.05
2022-09-23T22:49:57.488Z,21.90
2022-09-23T22:54:04.703Z,20.27
2022-09-23T22:58:31.173Z,17.60
2022-09-23T23:02:39.902Z,19.27
2022-09-23T23:06:46.737Z,19.65
2022-09-23T23:10:58.929Z,21.23
2022-09-23T23:19:16.711Z,19.75
2022-09-23T23:23:23.422Z,23.85
2022-09-23T23:27:30.198Z,21.55
2022-09-23T23:31:36.895Z,20.17
2022-09-23T23:35:51.202Z,29.08
2022-09-23T23:39:57.927Z,29.77
2022-09-23T23:44:05.495Z,24.88
2022-09-23T23:48:13.486Z,27.63
2022-09-23T23:52:20.157Z,29.27
2022-09-23T23:56:27.638Z,25.70
